Time;durP1;ratioP1;P1;durP2;ratioP2;P2;SDS_P1;SDS_P2;PMS_P1;PMS_P2;Temp;Humidity;BMP_temperature;BMP_pressure;BME280_temperature;BME280_humidity;BME280_pressure;Samples;Min_cycle;Max_cycle;Signal;HPM_P1;HPM_P2
2022/04/08 00:01:25;;;;;;;14.38;2.10;;;6.50;99.90;;;;;;5006725;28;20073;-78
2022/04/08 00:03:52;;;;;;;15.60;2.65;;;6.50;99.90;;;;;;5005665;28;20046;-78
2022/04/08 00:06:18;;;;;;;10.35;2.40;;;6.50;99.90;;;;;;5002511;28;20042;-78
2022/04/08 00:08:45;;;;;;;11.10;1.73;;;6.50;99.90;;;;;;5005670;28;20129;-78
2022/04/08 00:11:11;;;;;;;11.32;2.47;;;6.50;99.90;;;;;;5001438;28;20054;-78
2022/04/08 00:13:36;;;;;;;10.60;1.83;;;6.50;99.90;;;;;;5004178;28;20041;-78
2022/04/08 00:16:02;;;;;;;12.23;2.13;;;6.50;99.90;;;;;;5006211;28;20045;-78
2022/04/08 00:18:29;;;;;;;12.70;2.17;;;6.50;99.90;;;;;;5006932;28;20087;-78
2022/04/08 00:20:55;;;;;;;8.10;1.77;;;6.50;99.90;;;;;;5006158;28;20497;-78
2022/04/08 00:23:21;;;;;;;12.23;2.33;;;6.40;99.90;;;;;;5005208;28;20590;-78
2022/04/08 00:25:47;;;;;;;10.15;1.95;;;6.40;99.90;;;;;;5004186;28;20050;-78
2022/04/08 00:28:12;;;;;;;8.63;2.13;;;6.40;99.90;;;;;;5006376;28;20481;-78
2022/04/08 00:30:38;;;;;;;8.20;1.83;;;6.40;99.90;;;;;;5006504;28;20054;-78
2022/04/08 00:33:04;;;;;;;10.50;1.52;;;6.30;99.90;;;;;;5003213;28;20057;-78
2022/04/08 00:35:29;;;;;;;10.85;2.13;;;6.30;99.90;;;;;;5005250;28;20092;-78
2022/04/08 00:37:56;;;;;;;12.27;2.28;;;6.30;99.90;;;;;;5005202;28;20525;-77
2022/04/08 00:40:22;;;;;;;11.75;1.90;;;6.30;99.90;;;;;;5003475;28;20389;-78
2022/04/08 00:42:48;;;;;;;6.53;1.55;;;6.30;99.90;;;;;;5009074;28;20090;-78
2022/04/08 00:45:14;;;;;;;7.93;1.75;;;6.30;99.90;;;;;;5004912;28;20137;-78
2022/04/08 00:47:41;;;;;;;10.75;2.00;;;6.20;99.90;;;;;;5004552;28;20091;-78
2022/04/08 00:50:08;;;;;;;10.18;1.60;;;6.20;99.90;;;;;;5007034;28;20037;-78
2022/04/08 00:52:35;;;;;;;8.82;1.50;;;6.20;99.90;;;;;;5004269;28;20045;-78
2022/04/08 00:55:03;;;;;;;10.43;1.50;;;6.20;99.90;;;;;;5012285;28;20049;-78
2022/04/08 00:57:30;;;;;;;9.18;1.80;;;6.10;99.90;;;;;;5009084;28;20485;-77
2022/04/08 00:59:56;;;;;;;11.30;1.92;;;6.10;99.90;;;;;;5005942;28;20034;-78
2022/04/08 01:02:21;;;;;;;10.32;1.70;;;6.10;99.90;;;;;;5004291;28;20121;-78
2022/04/08 01:04:47;;;;;;;5.57;1.48;;;6.10;99.90;;;;;;5005867;28;20467;-78
2022/04/08 01:07:16;;;;;;;9.07;1.73;;;6.10;99.90;;;;;;5004750;28;20046;-78
2022/04/08 01:09:42;;;;;;;9.25;1.63;;;6.00;99.90;;;;;;5002770;28;20042;-78
2022/04/08 01:12:08;;;;;;;8.43;1.58;;;6.00;99.90;;;;;;5003578;28;20448;-78
2022/04/08 01:14:33;;;;;;;6.47;1.33;;;6.00;99.90;;;;;;5009916;28;20042;-78
2022/04/08 01:16:59;;;;;;;5.95;1.48;;;6.00;99.90;;;;;;5005647;28;20322;-78
2022/04/08 01:19:24;;;;;;;4.63;1.00;;;5.90;99.90;;;;;;5007561;28;20065;-77
2022/04/08 01:21:51;;;;;;;3.42;0.70;;;5.90;99.90;;;;;;5007988;28;20058;-78
2022/04/08 01:24:17;;;;;;;3.95;0.80;;;5.80;99.90;;;;;;5007441;28;20038;-78
2022/04/08 01:26:42;;;;;;;5.40;1.10;;;5.80;99.90;;;;;;5009015;28;20042;-78
2022/04/08 01:29:11;;;;;;;3.40;0.80;;;5.70;99.90;;;;;;5009554;28;20045;-78
2022/04/08 01:31:43;;;;;;;3.33;1.02;;;5.70;99.90;;;;;;5007783;28;20057;-78
2022/04/08 01:34:12;;;;;;;3.03;0.73;;;5.60;99.90;;;;;;5009166;28;20077;-78
2022/04/08 01:36:38;;;;;;;5.65;0.88;;;5.50;99.90;;;;;;5009206;28;20094;-79
2022/04/08 01:39:05;;;;;;;3.70;0.82;;;5.40;99.90;;;;;;5009495;28;20038;-78
2022/04/08 01:41:34;;;;;;;6.05;1.20;;;5.40;99.90;;;;;;5010328;28;20065;-78
2022/04/08 01:43:59;;;;;;;4.55;0.82;;;5.40;99.90;;;;;;5008670;28;20451;-78
2022/04/08 01:46:25;;;;;;;5.18;1.10;;;5.40;99.90;;;;;;5009063;28;20113;-78
2022/04/08 01:48:54;;;;;;;4.28;1.23;;;5.40;99.90;;;;;;5007628;28;20064;-78
2022/04/08 01:51:21;;;;;;;5.75;1.45;;;5.40;99.90;;;;;;5008629;28;20054;-78
2022/04/08 01:53:47;;;;;;;7.22;1.60;;;5.30;99.90;;;;;;5008078;28;20109;-77
2022/04/08 01:56:13;;;;;;;6.72;1.45;;;5.30;99.90;;;;;;5008644;28;20132;-78
2022/04/08 01:58:39;;;;;;;5.15;0.98;;;5.20;99.90;;;;;;5010525;28;20054;-78
2022/04/08 02:01:04;;;;;;;5.38;1.15;;;5.10;99.90;;;;;;5020770;28;20666;-78
2022/04/08 02:03:30;;;;;;;7.90;1.13;;;5.10;99.90;;;;;;5008891;28;20046;-79
2022/04/08 02:05:56;;;;;;;5.53;1.10;;;5.00;99.90;;;;;;5023858;28;20133;-78
2022/04/08 02:08:21;;;;;;;4.90;1.10;;;5.00;99.90;;;;;;5016348;28;20042;-78
2022/04/08 02:10:47;;;;;;;4.95;1.20;;;5.00;99.90;;;;;;5007603;28;20078;-78
2022/04/08 02:13:13;;;;;;;9.07;1.45;;;5.00;99.90;;;;;;5006259;28;20129;-78
2022/04/08 02:15:38;;;;;;;8.80;1.20;;;5.00;99.90;;;;;;5009177;28;20447;-78
2022/04/08 02:18:04;;;;;;;9.50;1.42;;;5.00;99.90;;;;;;5009066;28;20048;-78
2022/04/08 02:20:31;;;;;;;4.15;1.10;;;5.00;99.90;;;;;;5008948;28;20061;-78
2022/04/08 02:22:58;;;;;;;7.80;1.65;;;5.00;99.90;;;;;;5008178;28;20106;-78
2022/04/08 02:25:24;;;;;;;6.60;1.48;;;5.00;99.90;;;;;;5007332;28;20438;-78
2022/04/08 02:27:49;;;;;;;5.55;1.00;;;4.90;99.90;;;;;;5007058;28;20045;-77
2022/04/08 02:30:15;;;;;;;8.48;1.48;;;4.90;99.90;;;;;;5008087;28;20182;-78
2022/04/08 02:32:41;;;;;;;9.95;1.55;;;4.90;99.90;;;;;;5006892;28;20046;-78
2022/04/08 02:35:07;;;;;;;8.80;1.60;;;4.90;99.90;;;;;;5006954;28;20049;-78
2022/04/08 02:37:33;;;;;;;9.73;1.80;;;4.80;99.90;;;;;;5008985;28;20435;-78
2022/04/08 02:39:58;;;;;;;12.30;1.50;;;4.80;99.90;;;;;;5007953;28;20064;-78
2022/04/08 02:42:24;;;;;;;9.18;1.40;;;4.70;99.90;;;;;;5007274;28;20049;-78
2022/04/08 02:44:50;;;;;;;8.10;1.42;;;4.70;99.90;;;;;;5006684;28;20475;-78
2022/04/08 02:47:15;;;;;;;6.47;1.50;;;4.70;99.90;;;;;;5007402;28;20050;-78
2022/04/08 02:49:41;;;;;;;9.75;2.03;;;4.60;99.90;;;;;;5007497;28;20054;-78
2022/04/08 02:52:07;;;;;;;8.85;1.42;;;4.60;99.90;;;;;;5025649;28;20046;-78
2022/04/08 02:54:33;;;;;;;8.43;1.52;;;4.50;99.90;;;;;;5022043;28;20066;-78
2022/04/08 02:56:58;;;;;;;10.18;1.52;;;4.50;99.90;;;;;;5007089;28;20042;-79
2022/04/08 02:59:24;;;;;;;10.52;2.22;;;4.40;99.90;;;;;;5025120;28;20048;-78
2022/04/08 03:01:50;;;;;;;5.95;1.30;;;4.40;99.90;;;;;;5007849;28;20175;-79
2022/04/08 03:04:15;;;;;;;8.57;1.63;;;4.40;99.90;;;;;;5006748;28;20102;-79
2022/04/08 03:06:41;;;;;;;9.85;1.75;;;4.50;99.90;;;;;;5008498;28;20045;-78
2022/04/08 03:09:07;;;;;;;10.75;2.13;;;4.40;99.90;;;;;;5006656;28;20166;-80
2022/04/08 03:11:33;;;;;;;9.20;1.83;;;4.40;99.90;;;;;;5012339;28;20073;-78
2022/04/08 03:14:01;;;;;;;9.00;2.20;;;4.50;99.90;;;;;;5022534;28;20061;-78
2022/04/08 03:16:27;;;;;;;9.90;2.40;;;4.50;99.90;;;;;;5040321;28;20037;-78
2022/04/08 03:18:53;;;;;;;10.30;2.47;;;4.50;99.90;;;;;;5038536;28;20064;-78
2022/04/08 03:21:18;;;;;;;7.00;1.60;;;4.50;99.90;;;;;;5037242;28;20465;-78
2022/04/08 03:23:44;;;;;;;9.02;1.90;;;4.50;99.90;;;;;;5007878;28;20128;-78
2022/04/08 03:26:10;;;;;;;8.43;1.67;;;4.50;99.90;;;;;;5007593;28;20611;-78
2022/04/08 03:28:36;;;;;;;7.03;1.85;;;4.50;99.90;;;;;;5007397;28;20485;-78
2022/04/08 03:31:03;;;;;;;9.45;1.52;;;4.50;99.90;;;;;;5108632;27;20112;-78
2022/04/08 03:33:29;;;;;;;8.65;1.80;;;4.50;99.90;;;;;;5006827;28;20401;-78
2022/04/08 03:35:54;;;;;;;8.43;1.55;;;4.50;99.90;;;;;;5019146;28;20042;-78
2022/04/08 03:38:20;;;;;;;8.43;1.67;;;4.50;99.90;;;;;;5007360;28;20732;-78
2022/04/08 03:40:47;;;;;;;8.00;1.60;;;4.40;99.90;;;;;;5007579;28;20049;-78
2022/04/08 03:43:13;;;;;;;6.22;1.30;;;4.40;99.90;;;;;;5007386;28;20500;-77
2022/04/08 03:45:39;;;;;;;7.15;1.48;;;4.40;99.90;;;;;;5005567;28;20050;-78
2022/04/08 03:48:06;;;;;;;7.47;1.77;;;4.40;99.90;;;;;;5007093;28;20095;-78
2022/04/08 03:50:32;;;;;;;11.50;1.80;;;4.30;99.90;;;;;;5007131;28;20053;-78
2022/04/08 03:52:57;;;;;;;10.93;2.00;;;4.30;99.90;;;;;;5007361;28;20042;-77
2022/04/08 03:55:23;;;;;;;12.27;1.85;;;4.40;99.90;;;;;;5007775;28;20042;-78
2022/04/08 03:57:49;;;;;;;8.80;1.70;;;4.40;99.90;;;;;;5008355;28;20042;-78
2022/04/08 04:00:15;;;;;;;10.13;1.80;;;4.40;99.90;;;;;;5005476;28;20060;-79
2022/04/08 04:02:40;;;;;;;6.78;1.77;;;4.40;99.90;;;;;;5006357;28;20054;-79
2022/04/08 04:05:07;;;;;;;9.68;2.10;;;4.30;99.90;;;;;;5006707;28;20372;-79
2022/04/08 04:07:33;;;;;;;6.35;1.38;;;4.20;99.90;;;;;;5023750;28;20496;-78
2022/04/08 04:09:59;;;;;;;6.53;1.20;;;4.10;99.90;;;;;;5005073;28;20111;-79
2022/04/08 04:12:26;;;;;;;7.53;1.52;;;4.10;99.90;;;;;;5004791;28;20046;-78
2022/04/08 04:14:53;;;;;;;8.88;1.63;;;4.00;99.90;;;;;;5005685;28;20042;-79
2022/04/08 04:17:19;;;;;;;6.50;1.55;;;4.00;99.90;;;;;;5006894;28;20042;-78
2022/04/08 04:19:45;;;;;;;8.48;1.92;;;4.00;99.90;;;;;;5005208;28;20076;-78
2022/04/08 04:22:10;;;;;;;7.82;1.60;;;4.00;99.90;;;;;;5007600;28;20046;-79
2022/04/08 04:24:36;;;;;;;10.02;1.65;;;4.00;99.90;;;;;;5005468;28;20050;-79
2022/04/08 04:27:02;;;;;;;9.32;2.13;;;4.00;99.90;;;;;;5006252;28;20042;-78
2022/04/08 04:29:30;;;;;;;5.60;1.70;;;4.10;99.90;;;;;;5005713;28;20583;-79
2022/04/08 04:32:18;;;;;;;9.30;2.15;;;4.10;99.90;;;;;;5007920;28;20555;-79
2022/04/08 04:34:44;;;;;;;8.95;1.92;;;4.10;99.90;;;;;;5006870;28;20046;-79
2022/04/08 04:37:09;;;;;;;6.63;2.13;;;4.20;99.90;;;;;;5107759;27;20057;-79
2022/04/08 04:39:35;;;;;;;8.90;2.03;;;4.20;99.90;;;;;;5006691;28;20496;-78
2022/04/08 04:42:01;;;;;;;8.13;1.92;;;4.20;99.90;;;;;;5005498;28;20050;-79
2022/04/08 04:44:28;;;;;;;7.13;1.85;;;4.30;99.90;;;;;;5005840;28;20049;-79
2022/04/08 04:46:57;;;;;;;9.02;2.40;;;4.30;99.90;;;;;;5012644;28;20053;-78
2022/04/08 04:49:23;;;;;;;10.45;2.70;;;4.30;99.90;;;;;;5026034;28;20077;-78
2022/04/08 04:51:49;;;;;;;13.25;2.45;;;4.30;99.90;;;;;;5025338;28;20050;-79
2022/04/08 04:54:15;;;;;;;12.77;2.10;;;4.30;99.90;;;;;;5025955;28;20044;-79
2022/04/08 04:56:42;;;;;;;14.00;2.10;;;4.40;99.90;;;;;;5016265;28;20049;-79
2022/04/08 04:59:08;;;;;;;13.13;2.95;;;4.40;99.90;;;;;;5011776;28;20038;-78
2022/04/08 05:01:34;;;;;;;8.63;2.38;;;4.40;99.90;;;;;;5025022;28;20045;-79
2022/04/08 05:03:59;;;;;;;14.57;2.40;;;4.40;99.90;;;;;;5026146;28;20057;-78
2022/04/08 05:06:25;;;;;;;8.70;2.22;;;4.50;99.90;;;;;;5024798;28;20140;-78
2022/04/08 05:08:50;;;;;;;11.02;2.90;;;4.50;99.90;;;;;;5023863;28;20042;-78
2022/04/08 05:11:16;;;;;;;14.50;2.65;;;4.50;99.90;;;;;;5024460;28;20041;-78
2022/04/08 05:13:42;;;;;;;10.27;2.35;;;4.50;99.90;;;;;;5026147;28;20672;-78
2022/04/08 05:16:08;;;;;;;14.15;2.90;;;4.50;99.90;;;;;;5024608;28;20076;-78
2022/04/08 05:18:33;;;;;;;16.20;3.47;;;4.50;99.90;;;;;;5024365;28;20069;-78
2022/04/08 05:20:59;;;;;;;14.35;3.67;;;4.50;99.90;;;;;;5025709;28;20144;-78
2022/04/08 05:23:29;;;;;;;11.15;2.95;;;4.60;99.90;;;;;;5023807;28;20455;-78
2022/04/08 05:25:55;;;;;;;14.60;3.28;;;4.60;99.90;;;;;;5024702;28;20045;-78
2022/04/08 05:28:21;;;;;;;13.85;2.75;;;4.60;99.90;;;;;;5022580;28;20041;-78
2022/04/08 05:30:47;;;;;;;14.35;2.83;;;4.60;99.90;;;;;;5025240;28;20476;-78
2022/04/08 05:33:12;;;;;;;12.13;2.40;;;4.60;99.90;;;;;;5012043;28;20045;-78
2022/04/08 05:35:38;;;;;;;12.63;2.67;;;4.60;99.90;;;;;;5004998;28;20072;-78
2022/04/08 05:38:03;;;;;;;13.40;2.60;;;4.60;99.90;;;;;;5006045;28;20046;-80
2022/04/08 05:40:29;;;;;;;11.27;2.60;;;4.60;99.90;;;;;;5006022;28;20413;-80
2022/04/08 05:42:55;;;;;;;12.93;2.65;;;4.60;99.90;;;;;;5000812;28;20080;-80
2022/04/08 05:45:23;;;;;;;8.23;2.50;;;4.60;99.90;;;;;;5021601;28;20085;-80
2022/04/08 05:47:50;;;;;;;12.30;2.53;;;4.70;99.90;;;;;;5025197;28;20106;-80
2022/04/08 05:50:17;;;;;;;12.45;2.95;;;4.70;99.90;;;;;;5023177;28;20081;-80
2022/04/08 05:52:44;;;;;;;10.52;2.75;;;4.80;99.90;;;;;;5023987;28;20062;-80
2022/04/08 05:55:10;;;;;;;12.30;2.63;;;4.80;99.90;;;;;;5023088;28;20128;-80
2022/04/08 05:57:40;;;;;;;9.82;2.60;;;4.80;99.90;;;;;;5023088;28;20121;-81
2022/04/08 06:00:09;;;;;;;11.38;2.58;;;4.80;99.90;;;;;;5025101;28;20407;-79
2022/04/08 06:02:34;;;;;;;8.93;2.47;;;4.80;99.90;;;;;;5029111;28;20053;-79
2022/04/08 06:05:00;;;;;;;14.43;3.08;;;4.80;99.90;;;;;;5026529;28;20054;-79
2022/04/08 06:07:26;;;;;;;9.02;2.55;;;4.80;99.90;;;;;;5028236;28;20397;-80
2022/04/08 06:09:52;;;;;;;7.45;2.80;;;4.80;99.90;;;;;;5024784;28;20041;-79
2022/04/08 06:12:18;;;;;;;8.82;2.33;;;4.70;99.90;;;;;;5026038;28;20045;-80
2022/04/08 06:14:43;;;;;;;5.55;1.80;;;4.60;99.90;;;;;;5027389;28;20053;-79
2022/04/08 06:17:09;;;;;;;5.28;1.80;;;4.60;99.90;;;;;;5026517;28;20049;-79
2022/04/08 06:19:35;;;;;;;5.40;1.52;;;4.50;99.90;;;;;;5026258;28;20042;-79
2022/04/08 06:22:00;;;;;;;5.13;1.52;;;4.50;99.90;;;;;;5015553;28;20081;-79
2022/04/08 06:24:26;;;;;;;6.63;1.80;;;4.50;99.90;;;;;;5006255;28;20045;-80
2022/04/08 06:26:51;;;;;;;5.30;1.73;;;4.50;99.90;;;;;;5007176;28;20038;-79
2022/04/08 06:29:17;;;;;;;5.65;2.10;;;4.50;99.90;;;;;;5007005;28;20057;-79
2022/04/08 06:31:42;;;;;;;3.20;1.42;;;4.50;99.90;;;;;;5010198;28;20057;-79
2022/04/08 06:34:08;;;;;;;4.50;1.50;;;4.50;99.90;;;;;;5006028;28;20045;-79
2022/04/08 06:36:34;;;;;;;5.75;2.10;;;4.50;99.90;;;;;;5008405;28;20129;-80
2022/04/08 06:39:00;;;;;;;7.63;2.03;;;4.50;99.90;;;;;;4989972;28;20053;-80
2022/04/08 06:41:25;;;;;;;3.40;1.23;;;4.50;99.90;;;;;;5008758;28;20485;-79
2022/04/08 06:43:51;;;;;;;4.13;1.50;;;4.40;99.90;;;;;;5008067;28;20366;-80
2022/04/08 06:46:16;;;;;;;6.10;1.85;;;4.30;99.90;;;;;;5008449;28;20049;-79
2022/04/08 06:48:45;;;;;;;5.85;1.80;;;4.30;99.90;;;;;;5008239;28;20400;-79
2022/04/08 06:51:11;;;;;;;4.55;1.80;;;4.20;99.90;;;;;;5006203;28;20053;-79
2022/04/08 06:53:36;;;;;;;3.67;1.60;;;4.20;99.90;;;;;;5006378;28;20045;-79
2022/04/08 06:56:03;;;;;;;3.63;1.60;;;4.10;99.90;;;;;;5022196;28;20041;-79
2022/04/08 06:58:30;;;;;;;4.15;1.50;;;4.10;99.90;;;;;;5024577;28;20041;-80
2022/04/08 07:00:57;;;;;;;3.90;1.67;;;4.10;99.90;;;;;;5012410;28;20057;-79
2022/04/08 07:03:22;;;;;;;4.32;1.42;;;4.10;99.90;;;;;;5007568;28;20042;-79
2022/04/08 07:05:48;;;;;;;3.75;1.52;;;4.10;99.90;;;;;;5007753;28;20103;-79
2022/04/08 07:08:14;;;;;;;3.75;1.63;;;4.20;99.90;;;;;;5006616;28;20034;-79
2022/04/08 07:10:40;;;;;;;3.85;1.65;;;4.20;99.90;;;;;;5006782;28;20054;-79
2022/04/08 07:13:07;;;;;;;2.92;1.70;;;4.20;99.90;;;;;;5006009;28;20066;-79
2022/04/08 07:15:32;;;;;;;2.83;1.40;;;4.30;99.90;;;;;;5005566;28;20089;-81
2022/04/08 07:18:00;;;;;;;3.58;1.60;;;4.40;99.90;;;;;;5007514;28;20369;-80
2022/04/08 07:20:26;;;;;;;5.90;1.40;;;4.50;99.90;;;;;;5006344;28;20079;-80
2022/04/08 07:22:51;;;;;;;2.75;1.52;;;4.50;99.90;;;;;;5004957;28;20072;-78
2022/04/08 07:25:18;;;;;;;2.88;1.45;;;4.50;99.90;;;;;;4999755;28;20042;-77
2022/04/08 07:27:44;;;;;;;3.92;1.52;;;4.50;99.90;;;;;;5006411;28;20484;-78
2022/04/08 07:30:11;;;;;;;3.72;1.60;;;4.50;99.90;;;;;;5003490;28;20056;-78
2022/04/08 07:32:37;;;;;;;3.13;1.27;;;4.60;99.90;;;;;;5004052;28;20054;-80
2022/04/08 07:35:03;;;;;;;3.38;1.65;;;4.60;99.90;;;;;;5003311;28;20489;-81
2022/04/08 07:37:30;;;;;;;4.43;1.75;;;4.70;99.90;;;;;;5010194;28;20038;-81
2022/04/08 07:39:56;;;;;;;4.10;1.90;;;4.80;99.90;;;;;;5001092;28;20072;-81
2022/04/08 07:42:23;;;;;;;4.53;1.65;;;4.90;99.90;;;;;;5105362;27;20370;-81
2022/04/08 07:44:49;;;;;;;4.82;1.40;;;4.90;99.90;;;;;;5002849;28;20569;-82
2022/04/08 07:47:15;;;;;;;3.72;1.95;;;5.00;99.90;;;;;;5006604;28;20050;-80
2022/04/08 07:49:42;;;;;;;5.80;1.58;;;5.10;99.90;;;;;;5004933;28;20069;-79
2022/04/08 07:52:08;;;;;;;3.20;1.55;;;5.20;99.90;;;;;;5011645;28;20070;-79
2022/04/08 07:54:33;;;;;;;3.67;1.80;;;5.30;99.90;;;;;;5006675;28;20487;-76
2022/04/08 07:56:59;;;;;;;7.70;1.95;;;5.40;99.90;;;;;;5009738;28;20045;-74
2022/04/08 07:59:25;;;;;;;7.68;1.92;;;5.50;99.90;;;;;;5076667;28;20090;-79
2022/04/08 08:01:50;;;;;;;6.60;2.05;;;5.60;99.90;;;;;;5015549;28;20401;-80
2022/04/08 08:04:16;;;;;;;4.03;1.85;;;5.80;99.90;;;;;;5030223;28;20033;-79
2022/04/08 08:06:42;;;;;;;6.25;2.15;;;5.90;99.90;;;;;;5007409;28;20054;-79
2022/04/08 08:09:08;;;;;;;5.93;2.15;;;6.00;99.90;;;;;;5016046;28;20036;-78
2022/04/08 08:11:34;;;;;;;7.57;2.13;;;6.00;99.90;;;;;;5045862;28;20042;-80
2022/04/08 08:13:59;;;;;;;8.13;2.60;;;6.10;99.90;;;;;;5006164;28;20086;-80
2022/04/08 08:16:25;;;;;;;8.70;2.00;;;6.20;99.90;;;;;;5113127;27;20102;-79
2022/04/08 08:18:56;;;;;;;6.43;2.40;;;6.20;99.90;;;;;;5014165;28;20503;-80
2022/04/08 08:21:22;;;;;;;6.35;2.00;;;6.20;99.90;;;;;;5110323;27;20487;-80
2022/04/08 08:23:47;;;;;;;8.57;1.92;;;6.30;99.90;;;;;;5019555;28;20080;-80
2022/04/08 08:26:13;;;;;;;7.93;2.70;;;6.40;99.90;;;;;;5020379;28;20042;-80
2022/04/08 08:28:39;;;;;;;6.15;2.42;;;6.40;99.90;;;;;;5005605;28;20038;-80
2022/04/08 08:31:04;;;;;;;7.38;2.60;;;6.30;99.90;;;;;;5007522;28;20038;-81
2022/04/08 08:33:30;;;;;;;6.63;2.70;;;6.20;99.90;;;;;;5007439;28;20094;-81
2022/04/08 08:35:56;;;;;;;9.30;3.28;;;6.10;99.90;;;;;;5037428;28;20053;-82
2022/04/08 08:38:22;;;;;;;8.77;3.10;;;6.10;99.90;;;;;;5021867;28;20036;-80
2022/04/08 08:40:49;;;;;;;8.50;3.47;;;6.10;99.90;;;;;;5008464;28;20046;-80
2022/04/08 08:43:18;;;;;;;6.15;2.75;;;6.00;99.90;;;;;;5026337;28;20035;-81
2022/04/08 08:45:47;;;;;;;6.75;3.40;;;5.90;99.90;;;;;;5008871;28;20050;-81
2022/04/08 08:48:14;;;;;;;6.82;3.88;;;5.90;99.90;;;;;;5010775;28;20046;-80
2022/04/08 08:50:44;;;;;;;;;;;5.80;99.90;;;;;;5005784;28;20053;-82
2022/04/08 08:53:09;;;;;;;6.20;3.22;;;5.80;99.90;;;;;;5001981;28;19969;-78
2022/04/08 08:55:38;;;;;;;8.57;3.88;;;5.80;99.90;;;;;;5007084;28;20084;-80
2022/04/08 08:58:04;;;;;;;7.68;3.85;;;5.90;99.90;;;;;;5004724;28;20049;-82
2022/04/08 09:00:29;;;;;;;9.55;4.25;;;6.00;99.90;;;;;;5003028;28;20042;-82
2022/04/08 09:02:55;;;;;;;13.20;4.60;;;6.10;99.90;;;;;;5003438;28;20045;-85
2022/04/08 09:05:23;;;;;;;8.52;4.88;;;6.20;99.90;;;;;;5009602;28;20136;-83
2022/04/08 09:07:53;;;;;;;10.38;4.43;;;6.30;99.90;;;;;;5007433;28;20786;-82
2022/04/08 09:10:24;;;;;;;14.80;5.60;;;6.40;99.90;;;;;;5012046;28;20144;-80
2022/04/08 09:12:54;;;;;;;11.57;4.78;;;6.40;99.90;;;;;;5008845;28;20095;-80
2022/04/08 09:15:19;;;;;;;14.82;5.72;;;6.40;99.90;;;;;;5022640;28;20062;-82
2022/04/08 09:17:45;;;;;;;9.27;4.38;;;6.50;99.90;;;;;;5109365;28;20069;-82
2022/04/08 09:20:11;;;;;;;12.38;5.28;;;6.60;99.90;;;;;;5036288;28;20050;-83
2022/04/08 09:22:37;;;;;;;6.85;4.30;;;6.60;99.90;;;;;;5005382;28;20038;-78
2022/04/08 09:25:10;;;;;;;9.95;4.20;;;6.70;99.90;;;;;;5010039;28;20046;-79
2022/04/08 09:27:37;;;;;;;6.32;3.38;;;6.80;99.90;;;;;;5004474;28;20565;-79
2022/04/08 09:30:04;;;;;;;6.07;3.00;;;6.80;99.90;;;;;;5009437;28;20129;-79
2022/04/08 09:32:29;;;;;;;5.70;2.72;;;6.80;99.90;;;;;;5009535;28;20059;-80
2022/04/08 09:34:55;;;;;;;5.45;2.42;;;6.80;99.90;;;;;;5014894;28;20037;-81
2022/04/08 09:37:21;;;;;;;7.97;2.10;;;6.80;99.90;;;;;;5014536;28;20038;-80
2022/04/08 09:39:58;;;;;;;7.00;2.00;;;6.90;99.90;;;;;;5094507;28;20047;-81
2022/04/08 09:42:39;;;;;;;4.43;2.00;;;6.80;99.90;;;;;;5013514;28;20125;-80
2022/04/08 09:45:05;;;;;;;5.70;1.88;;;6.80;99.90;;;;;;5007303;28;20054;-82
2022/04/08 09:47:32;;;;;;;11.75;2.25;;;6.80;99.90;;;;;;5007064;28;20097;-82
2022/04/08 09:49:57;;;;;;;6.90;1.90;;;6.80;99.90;;;;;;5009649;28;20500;-82
2022/04/08 09:52:25;;;;;;;6.82;1.60;;;6.80;99.90;;;;;;5015641;28;20049;-82
2022/04/08 09:54:52;;;;;;;;;;;6.90;99.90;;;;;;5007638;28;20041;-84
2022/04/08 09:57:18;;;;;;;6.28;1.92;;;6.90;99.90;;;;;;5006045;28;19928;-84
2022/04/08 09:59:47;;;;;;;7.38;2.40;;;7.00;99.90;;;;;;5007298;28;20049;-84
2022/04/08 10:02:19;;;;;;;12.48;3.00;;;7.20;99.90;;;;;;5010325;28;20046;-83
2022/04/08 10:04:45;;;;;;;11.18;2.40;;;7.40;99.90;;;;;;5017474;28;20073;-84
2022/04/08 10:07:11;;;;;;;10.10;3.10;;;7.50;99.90;;;;;;5007302;28;20138;-83
2022/04/08 10:09:53;;;;;;;11.00;2.93;;;7.70;99.90;;;;;;5059290;28;20050;-83
2022/04/08 10:12:54;;;;;;;13.50;3.03;;;7.80;99.90;;;;;;5010750;28;20048;-81
2022/04/08 10:15:30;;;;;;;11.60;3.67;;;7.90;99.90;;;;;;5076787;28;20145;-84
2022/04/08 10:18:04;;;;;;;7.93;3.00;;;8.00;99.90;;;;;;4998723;28;20484;-83
2022/04/08 10:20:30;;;;;;;10.38;3.47;;;8.10;99.90;;;;;;5017730;28;20061;-84
2022/04/08 10:23:11;;;;;;;10.02;3.30;;;8.20;99.90;;;;;;5007371;28;20437;-86
2022/04/08 10:25:40;;;;;;;6.85;3.22;;;8.30;99.90;;;;;;5008525;28;20048;-87
2022/04/08 10:28:06;;;;;;;13.93;3.85;;;8.30;99.90;;;;;;5005348;28;20062;-83
2022/04/08 10:30:43;;;;;;;11.07;3.38;;;8.30;99.90;;;;;;5005301;28;20046;-85
2022/04/08 10:33:11;;;;;;;;;;;8.30;99.90;;;;;;5006518;28;20042;-83
2022/04/08 10:35:37;;;;;;;9.45;3.50;;;8.30;99.90;;;;;;5006900;28;19947;-86
2022/04/08 10:38:07;;;;;;;12.75;3.45;;;8.30;99.90;;;;;;5007375;28;20065;-84
2022/04/08 10:40:39;;;;;;;9.20;3.60;;;8.50;99.90;;;;;;5007107;28;20430;-85
2022/04/08 10:43:10;;;;;;;9.85;3.17;;;8.50;99.90;;;;;;4997571;28;20090;-86
2022/04/08 10:45:36;;;;;;;12.45;3.15;;;8.50;99.90;;;;;;5024760;28;20386;-87
2022/04/08 10:48:11;;;;;;;7.40;2.83;;;8.50;99.90;;;;;;5021027;28;20074;-85
2022/04/08 10:50:38;;;;;;;10.05;3.33;;;8.50;99.90;;;;;;5007756;28;20054;-85
2022/04/08 10:53:09;;;;;;;9.73;2.60;;;8.50;99.90;;;;;;5003545;28;20065;-88
2022/04/08 10:55:53;;;;;;;7.22;2.65;;;8.60;99.90;;;;;;5032436;28;20053;-88
2022/04/08 10:58:41;;;;;;;8.15;2.90;;;8.60;99.90;;;;;;5002857;28;20037;-87
2022/04/08 11:01:43;;;;;;;12.95;2.60;;;8.70;99.90;;;;;;5006088;28;20085;-86
2022/04/08 11:04:09;;;;;;;9.10;2.30;;;8.80;99.90;;;;;;4997258;28;20041;-82
2022/04/08 11:06:38;;;;;;;7.38;2.20;;;9.00;99.90;;;;;;5008277;28;20540;-86
2022/04/08 11:09:12;;;;;;;9.18;2.78;;;9.10;99.90;;;;;;5006430;28;20045;-83
2022/04/08 11:11:52;;;;;;;8.32;2.25;;;9.30;99.90;;;;;;5009113;28;20120;-82
2022/04/08 11:14:21;;;;;;;6.70;2.05;;;9.40;97.70;;;;;;5005214;28;20046;-82
2022/04/08 11:16:49;;;;;;;8.15;2.42;;;9.40;92.60;;;;;;5005525;28;20143;-82
2022/04/08 11:19:14;;;;;;;7.72;2.30;;;9.30;99.90;;;;;;5005912;28;20128;-80
2022/04/08 11:21:41;;;;;;;9.55;2.40;;;9.30;99.40;;;;;;5006671;28;20117;-80
2022/04/08 11:24:13;;;;;;;9.38;2.70;;;9.20;99.90;;;;;;5004740;28;20037;-78
2022/04/08 11:26:50;;;;;;;9.82;2.53;;;9.10;99.90;;;;;;5002550;28;20042;-84
2022/04/08 11:29:17;;;;;;;8.02;1.95;;;9.00;99.90;;;;;;5005018;28;20443;-83
2022/04/08 11:31:44;;;;;;;10.45;2.30;;;8.90;98.50;;;;;;5005615;28;20058;-84
2022/04/08 11:34:12;;;;;;;6.22;1.40;;;8.80;92.90;;;;;;5005967;28;20046;-85
2022/04/08 11:36:39;;;;;;;8.98;2.00;;;8.70;93.00;;;;;;5007241;28;20060;-81
2022/04/08 11:39:06;;;;;;;10.18;2.10;;;8.60;98.20;;;;;;5006767;28;20504;-81
2022/04/08 11:41:36;;;;;;;8.00;2.28;;;8.40;99.90;;;;;;5004586;28;20102;-82
2022/04/08 11:44:03;;;;;;;9.10;2.45;;;8.20;99.90;;;;;;5007097;28;20099;-82
2022/04/08 11:46:30;;;;;;;11.98;2.47;;;8.10;99.90;;;;;;5005368;28;20045;-83
2022/04/08 11:48:58;;;;;;;10.70;2.60;;;7.90;99.90;;;;;;5006440;28;20096;-84
2022/04/08 11:51:24;;;;;;;8.82;2.33;;;7.80;99.90;;;;;;5006228;28;20378;-81
2022/04/08 11:53:52;;;;;;;10.23;2.63;;;7.70;99.90;;;;;;5038609;28;20069;-84
2022/04/08 11:56:26;;;;;;;9.73;2.75;;;7.70;99.90;;;;;;5017008;28;20313;-82
2022/04/08 11:58:56;;;;;;;11.83;2.73;;;7.80;99.90;;;;;;5005688;28;20038;-84
2022/04/08 12:01:23;;;;;;;9.40;2.85;;;7.80;99.90;;;;;;5005804;28;20098;-78
2022/04/08 12:03:52;;;;;;;7.47;2.50;;;7.80;99.90;;;;;;5005419;28;20186;-81
2022/04/08 12:06:18;;;;;;;13.73;3.00;;;7.90;99.90;;;;;;5007709;28;20041;-82
2022/04/08 12:08:47;;;;;;;9.57;2.67;;;8.00;99.90;;;;;;5011281;28;20125;-82
2022/04/08 12:11:13;;;;;;;10.35;3.22;;;8.10;99.90;;;;;;5037230;28;20092;-80
2022/04/08 12:13:40;;;;;;;7.40;2.47;;;8.40;99.90;;;;;;5069465;28;20827;-80
2022/04/08 12:16:13;;;;;;;10.95;3.10;;;8.50;99.90;;;;;;5008338;28;20129;-79
2022/04/08 12:18:52;;;;;;;12.00;3.30;;;8.70;99.90;;;;;;4999708;28;20091;-77
2022/04/08 12:21:25;;;;;;;12.57;3.00;;;8.80;99.90;;;;;;5037696;28;20515;-76
2022/04/08 12:23:53;;;;;;;13.73;3.58;;;8.90;99.90;;;;;;5007560;28;20137;-79
2022/04/08 12:26:23;;;;;;;11.65;3.67;;;8.90;99.90;;;;;;5004155;28;20041;-81
2022/04/08 12:28:49;;;;;;;9.57;3.00;;;8.90;99.90;;;;;;5007221;28;20045;-83
2022/04/08 12:31:18;;;;;;;11.05;2.92;;;8.80;99.90;;;;;;5017665;28;20033;-81
2022/04/08 12:33:43;;;;;;;8.60;2.78;;;8.90;99.90;;;;;;5008310;28;20042;-84
2022/04/08 12:36:10;;;;;;;11.32;2.80;;;8.90;99.90;;;;;;5005547;28;20362;-82
2022/04/08 12:38:41;;;;;;;8.63;2.63;;;8.90;99.90;;;;;;5005173;28;20527;-83
2022/04/08 12:41:08;;;;;;;9.50;2.75;;;8.90;99.90;;;;;;5005158;28;20064;-85
2022/04/08 12:43:34;;;;;;;8.65;2.78;;;9.00;99.90;;;;;;5005762;28;20134;-80
2022/04/08 12:46:00;;;;;;;5.95;2.30;;;9.10;99.90;;;;;;5000768;28;20472;-83
2022/04/08 12:48:25;;;;;;;5.63;2.33;;;8.90;99.90;;;;;;5000581;28;20038;-82
2022/04/08 12:50:51;;;;;;;8.13;1.98;;;8.80;99.90;;;;;;5001298;28;20046;-86
2022/04/08 12:53:17;;;;;;;8.93;2.58;;;8.60;99.90;;;;;;5002382;28;20132;-83
2022/04/08 12:55:42;;;;;;;6.88;2.53;;;8.50;99.90;;;;;;5001204;28;20136;-86